sensor_id;sensor_type;location;lat;lon;timestamp;pressure;altitude;pressure_sealevel;temperature;humidity
69570;BME280;56781;42.292;23.146;2024-03-08T00:02:18;95340.59;;;2.48;86.19
69570;BME280;56781;42.292;23.146;2024-03-08T00:04:47;95428.97;;;2.70;85.99
69570;BME280;56781;42.292;23.146;2024-03-08T00:07:17;94907.09;;;-0.47;86.76
69570;BME280;56781;42.292;23.146;2024-03-08T00:09:46;94920.94;;;-0.45;86.59
69570;BME280;56781;42.292;23.146;2024-03-08T00:12:15;95179.03;;;1.14;86.83
69570;BME280;56781;42.292;23.146;2024-03-08T00:14:44;95437.28;;;3.00;87.53
69570;BME280;56781;42.292;23.146;2024-03-08T00:17:13;95373.38;;;2.50;86.69
69570;BME280;56781;42.292;23.146;2024-03-08T00:19:42;94920.06;;;-0.49;86.14
69570;BME280;56781;42.292;23.146;2024-03-08T00:22:11;95367.53;;;2.63;85.78
69570;BME280;56781;42.292;23.146;2024-03-08T00:24:42;95356.13;;;2.54;86.08
69570;BME280;56781;42.292;23.146;2024-03-08T00:27:11;94941.13;;;-0.35;86.79
69570;BME280;56781;42.292;23.146;2024-03-08T00:29:39;95300.72;;;2.21;87.21
69570;BME280;56781;42.292;23.146;2024-03-08T00:32:08;95425.44;;;3.05;87.42
69570;BME280;56781;42.292;23.146;2024-03-08T00:34:38;95096.75;;;0.81;86.91
69570;BME280;56781;42.292;23.146;2024-03-08T00:37:07;95338.03;;;2.00;88.20
69570;BME280;56781;42.292;23.146;2024-03-08T00:39:35;95060.09;;;0.25;87.92
69570;BME280;56781;42.292;23.146;2024-03-08T00:42:06;95319.75;;;2.09;88.27
69570;BME280;56781;42.292;23.146;2024-03-08T00:44:35;95088.63;;;0.30;87.99
69570;BME280;56781;42.292;23.146;2024-03-08T00:47:05;95113.47;;;0.55;88.39
69570;BME280;56781;42.292;23.146;2024-03-08T00:49:33;95433.75;;;2.41;89.15
69570;BME280;56781;42.292;23.146;2024-03-08T00:52:04;95080.94;;;0.28;89.33
69570;BME280;56781;42.292;23.146;2024-03-08T00:54:34;95429.50;;;2.40;89.46
69570;BME280;56781;42.292;23.146;2024-03-08T00:57:03;95118.66;;;0.32;88.86
69570;BME280;56781;42.292;23.146;2024-03-08T00:59:33;95401.53;;;2.13;89.71
69570;BME280;56781;42.292;23.146;2024-03-08T01:02:02;94839.19;;;-1.39;88.79
69570;BME280;56781;42.292;23.146;2024-03-08T01:04:30;94883.94;;;-1.43;89.21
69570;BME280;56781;42.292;23.146;2024-03-08T01:07:00;95201.31;;;0.79;90.48
69570;BME280;56781;42.292;23.146;2024-03-08T01:09:29;95217.47;;;0.79;90.04
69570;BME280;56781;42.292;23.146;2024-03-08T01:11:59;94866.78;;;-1.54;89.73
69570;BME280;56781;42.292;23.146;2024-03-08T01:14:28;94846.44;;;-1.56;89.27
69570;BME280;56781;42.292;23.146;2024-03-08T01:16:59;94929.91;;;-1.01;89.68
69570;BME280;56781;42.292;23.146;2024-03-08T01:19:28;94834.03;;;-1.76;88.37
69570;BME280;56781;42.292;23.146;2024-03-08T01:21:59;94914.25;;;-1.55;88.94
69570;BME280;56781;42.292;23.146;2024-03-08T01:24:28;95254.91;;;0.40;88.87
69570;BME280;56781;42.292;23.146;2024-03-08T01:26:57;94946.50;;;-2.04;89.61
69570;BME280;56781;42.292;23.146;2024-03-08T01:29:27;94815.91;;;-2.72;90.10
69570;BME280;56781;42.292;23.146;2024-03-08T01:31:56;95324.75;;;0.64;91.01
69570;BME280;56781;42.292;23.146;2024-03-08T01:34:29;94988.41;;;-1.35;90.84
69570;BME280;56781;42.292;23.146;2024-03-08T01:36:57;94784.56;;;-2.59;90.77
69570;BME280;56781;42.292;23.146;2024-03-08T01:39:26;95369.41;;;1.09;91.42
69570;BME280;56781;42.292;23.146;2024-03-08T01:41:55;95373.75;;;0.98;90.86
69570;BME280;56781;42.292;23.146;2024-03-08T01:44:24;95209.94;;;-0.32;90.71
69570;BME280;56781;42.292;23.146;2024-03-08T01:47:09;94788.47;;;-2.94;90.76
69570;BME280;56781;42.292;23.146;2024-03-08T01:49:41;95125.81;;;-0.88;91.14
69570;BME280;56781;42.292;23.146;2024-03-08T01:52:09;95025.31;;;-1.56;90.99
69570;BME280;56781;42.292;23.146;2024-03-08T01:54:38;94821.78;;;-3.28;89.82
69570;BME280;56781;42.292;23.146;2024-03-08T01:57:08;94819.13;;;-3.16;90.85
69570;BME280;56781;42.292;23.146;2024-03-08T01:59:37;95082.84;;;-1.41;90.26
69570;BME280;56781;42.292;23.146;2024-03-08T02:02:06;95030.38;;;-1.79;91.11
69570;BME280;56781;42.292;23.146;2024-03-08T02:04:37;95352.47;;;0.37;91.19
69570;BME280;56781;42.292;23.146;2024-03-08T02:07:07;95235.50;;;-0.38;91.91
69570;BME280;56781;42.292;23.146;2024-03-08T02:09:37;94977.41;;;-1.82;91.15
69570;BME280;56781;42.292;23.146;2024-03-08T02:12:07;94556.38;;;-4.72;89.47
69570;BME280;56781;42.292;23.146;2024-03-08T02:14:36;95010.72;;;-1.71;90.12
69570;BME280;56781;42.292;23.146;2024-03-08T02:17:04;94798.16;;;-3.01;90.39
69570;BME280;56781;42.292;23.146;2024-03-08T02:19:33;94795.72;;;-2.94;90.01
69570;BME280;56781;42.292;23.146;2024-03-08T02:22:05;95102.31;;;-1.32;90.05
69570;BME280;56781;42.292;23.146;2024-03-08T02:24:36;95224.50;;;-0.33;90.85
69570;BME280;56781;42.292;23.146;2024-03-08T02:27:05;95324.84;;;0.52;90.56
69570;BME280;56781;42.292;23.146;2024-03-08T02:29:34;95031.25;;;-1.50;90.12
69570;BME280;56781;42.292;23.146;2024-03-08T02:32:03;95389.69;;;0.91;90.74
69570;BME280;56781;42.292;23.146;2024-03-08T02:34:32;95139.97;;;-0.63;90.31
69570;BME280;56781;42.292;23.146;2024-03-08T02:37:01;95188.84;;;-0.58;88.80
69570;BME280;56781;42.292;23.146;2024-03-08T02:39:32;95008.72;;;-2.11;88.48
69570;BME280;56781;42.292;23.146;2024-03-08T02:42:00;95381.59;;;0.47;90.10
69570;BME280;56781;42.292;23.146;2024-03-08T02:44:29;95397.91;;;0.54;91.19
69570;BME280;56781;42.292;23.146;2024-03-08T02:46:58;95091.50;;;-1.60;89.57
69570;BME280;56781;42.292;23.146;2024-03-08T02:49:27;94781.00;;;-3.83;90.47
69570;BME280;56781;42.292;23.146;2024-03-08T02:51:55;94842.56;;;-3.46;91.66
69570;BME280;56781;42.292;23.146;2024-03-08T02:54:25;95400.88;;;0.37;90.20
69570;BME280;56781;42.292;23.146;2024-03-08T02:56:55;95376.94;;;0.19;90.71
69570;BME280;56781;42.292;23.146;2024-03-08T02:59:24;95095.97;;;-1.52;90.29
69570;BME280;56781;42.292;23.146;2024-03-08T03:01:53;95009.59;;;-2.19;89.30
69570;BME280;56781;42.292;23.146;2024-03-08T03:04:22;95077.94;;;-1.88;89.50
69570;BME280;56781;42.292;23.146;2024-03-08T03:06:51;95070.38;;;-2.44;90.74
69570;BME280;56781;42.292;23.146;2024-03-08T03:09:20;94906.22;;;-3.60;90.86
69570;BME280;56781;42.292;23.146;2024-03-08T03:11:56;94929.66;;;-3.45;91.41
69570;BME280;56781;42.292;23.146;2024-03-08T03:14:25;95409.00;;;-0.25;92.08
69570;BME280;56781;42.292;23.146;2024-03-08T03:16:54;95407.91;;;-0.11;92.61
69570;BME280;56781;42.292;23.146;2024-03-08T03:19:23;94914.06;;;-3.55;92.87
69570;BME280;56781;42.292;23.146;2024-03-08T03:21:52;95262.38;;;-1.24;93.94
69570;BME280;56781;42.292;23.146;2024-03-08T03:24:20;95383.06;;;-0.20;93.74
69570;BME280;56781;42.292;23.146;2024-03-08T03:26:50;94779.31;;;-4.20;92.93
69570;BME280;56781;42.292;23.146;2024-03-08T03:29:20;95417.53;;;0.14;91.98
69570;BME280;56781;42.292;23.146;2024-03-08T03:31:49;95167.81;;;-1.21;92.11
69570;BME280;56781;42.292;23.146;2024-03-08T03:34:18;94653.75;;;-4.45;90.48
69570;BME280;56781;42.292;23.146;2024-03-08T03:36:46;94815.88;;;-3.21;90.10
69570;BME280;56781;42.292;23.146;2024-03-08T03:39:16;95116.50;;;-1.31;89.88
69570;BME280;56781;42.292;23.146;2024-03-08T03:41:47;95351.66;;;-0.16;90.73
69570;BME280;56781;42.292;23.146;2024-03-08T03:44:20;94813.34;;;-3.63;90.17
69570;BME280;56781;42.292;23.146;2024-03-08T03:46:51;95132.28;;;-1.30;90.91
69570;BME280;56781;42.292;23.146;2024-03-08T03:49:20;95205.88;;;-0.66;90.76
69570;BME280;56781;42.292;23.146;2024-03-08T03:51:49;94761.25;;;-3.57;90.64
69570;BME280;56781;42.292;23.146;2024-03-08T03:54:18;95181.06;;;-0.75;90.60
69570;BME280;56781;42.292;23.146;2024-03-08T03:56:46;95171.41;;;-0.64;89.62
69570;BME280;56781;42.292;23.146;2024-03-08T03:59:21;95359.81;;;0.52;90.44
69570;BME280;56781;42.292;23.146;2024-03-08T04:01:51;95070.06;;;-1.07;89.79
69570;BME280;56781;42.292;23.146;2024-03-08T04:04:20;95146.31;;;-0.56;89.30
69570;BME280;56781;42.292;23.146;2024-03-08T04:06:48;95040.19;;;-1.46;90.10
69570;BME280;56781;42.292;23.146;2024-03-08T04:09:18;95382.03;;;0.77;90.56
69570;BME280;56781;42.292;23.146;2024-03-08T04:11:49;95432.22;;;1.14;90.12
69570;BME280;56781;42.292;23.146;2024-03-08T04:14:22;94803.53;;;-3.14;89.57
69570;BME280;56781;42.292;23.146;2024-03-08T04:16:51;94908.34;;;-2.50;88.37
69570;BME280;56781;42.292;23.146;2024-03-08T04:19:20;95121.09;;;-1.57;88.70
69570;BME280;56781;42.292;23.146;2024-03-08T04:21:49;95438.88;;;0.76;89.48
69570;BME280;56781;42.292;23.146;2024-03-08T04:24:17;95448.84;;;0.47;89.97
69570;BME280;56781;42.292;23.146;2024-03-08T04:26:46;95097.94;;;-1.86;90.06
69570;BME280;56781;42.292;23.146;2024-03-08T04:29:15;94807.66;;;-3.62;89.44
69570;BME280;56781;42.292;23.146;2024-03-08T04:31:46;94931.19;;;-2.77;90.07
69570;BME280;56781;42.292;23.146;2024-03-08T04:34:14;95452.41;;;0.63;88.94
69570;BME280;56781;42.292;23.146;2024-03-08T04:36:43;95348.78;;;-0.36;89.82
69570;BME280;56781;42.292;23.146;2024-03-08T04:39:12;94865.03;;;-3.59;90.28
69570;BME280;56781;42.292;23.146;2024-03-08T04:41:41;95474.75;;;0.39;90.85
69570;BME280;56781;42.292;23.146;2024-03-08T04:44:10;94949.88;;;-3.02;90.47
69570;BME280;56781;42.292;23.146;2024-03-08T04:46:40;94936.13;;;-3.13;90.93
69570;BME280;56781;42.292;23.146;2024-03-08T04:49:10;94915.03;;;-3.26;90.04
69570;BME280;56781;42.292;23.146;2024-03-08T04:51:40;95358.81;;;-0.08;88.88
69570;BME280;56781;42.292;23.146;2024-03-08T04:54:08;95401.63;;;-0.03;89.01
69570;BME280;56781;42.292;23.146;2024-03-08T04:56:37;94925.28;;;-2.95;89.83
69570;BME280;56781;42.292;23.146;2024-03-08T04:59:06;95027.66;;;-2.28;89.06
69570;BME280;56781;42.292;23.146;2024-03-08T05:01:35;95393.44;;;-0.07;89.27
69570;BME280;56781;42.292;23.146;2024-03-08T05:04:04;94791.69;;;-3.83;88.52
69570;BME280;56781;42.292;23.146;2024-03-08T05:06:37;95087.75;;;-2.17;88.96
69570;BME280;56781;42.292;23.146;2024-03-08T05:09:06;95264.97;;;-0.66;89.60
69570;BME280;56781;42.292;23.146;2024-03-08T05:11:41;94902.88;;;-2.78;89.11
69570;BME280;56781;42.292;23.146;2024-03-08T05:14:10;95454.50;;;0.70;89.18
69570;BME280;56781;42.292;23.146;2024-03-08T05:16:40;95251.22;;;-0.77;88.81
69570;BME280;56781;42.292;23.146;2024-03-08T05:19:08;94848.22;;;-3.14;87.67
69570;BME280;56781;42.292;23.146;2024-03-08T05:21:39;95098.25;;;-1.26;87.96
69570;BME280;56781;42.292;23.146;2024-03-08T05:24:07;94731.44;;;-3.80;89.07
69570;BME280;56781;42.292;23.146;2024-03-08T05:26:37;95411.31;;;0.79;89.13
69570;BME280;56781;42.292;23.146;2024-03-08T05:29:06;95318.16;;;0.34;88.32
69570;BME280;56781;42.292;23.146;2024-03-08T05:31:39;95497.28;;;1.88;88.13
69570;BME280;56781;42.292;23.146;2024-03-08T05:34:11;95506.44;;;2.15;87.29
69570;BME280;56781;42.292;23.146;2024-03-08T05:36:43;94909.63;;;-1.70;87.38
69570;BME280;56781;42.292;23.146;2024-03-08T05:39:13;95150.47;;;-0.02;87.37
69570;BME280;56781;42.292;23.146;2024-03-08T05:41:42;95132.47;;;-0.30;87.19
69570;BME280;56781;42.292;23.146;2024-03-08T05:44:12;94884.28;;;-1.85;86.09
69570;BME280;56781;42.292;23.146;2024-03-08T05:46:41;95513.38;;;2.48;86.76
69570;BME280;56781;42.292;23.146;2024-03-08T05:49:10;94956.84;;;-0.97;86.09
69570;BME280;56781;42.292;23.146;2024-03-08T05:51:39;95308.56;;;1.24;86.16
69570;BME280;56781;42.292;23.146;2024-03-08T05:54:11;95167.88;;;0.48;86.07
69570;BME280;56781;42.292;23.146;2024-03-08T05:56:44;95408.66;;;2.21;85.59
69570;BME280;56781;42.292;23.146;2024-03-08T05:59:14;95500.19;;;2.81;86.26
69570;BME280;56781;42.292;23.146;2024-03-08T06:01:44;95114.41;;;0.31;85.28
69570;BME280;56781;42.292;23.146;2024-03-08T06:04:14;95530.78;;;2.85;86.21
69570;BME280;56781;42.292;23.146;2024-03-08T06:06:44;94977.53;;;-0.54;85.38
69570;BME280;56781;42.292;23.146;2024-03-08T06:09:19;95468.34;;;2.71;84.92
69570;BME280;56781;42.292;23.146;2024-03-08T06:11:51;95519.06;;;3.17;84.64
69570;BME280;56781;42.292;23.146;2024-03-08T06:14:21;95025.47;;;-0.08;84.13
69570;BME280;56781;42.292;23.146;2024-03-08T06:16:50;95019.84;;;-0.03;84.27
69570;BME280;56781;42.292;23.146;2024-03-08T06:19:19;94985.97;;;0.08;83.95
69570;BME280;56781;42.292;23.146;2024-03-08T06:21:48;95326.28;;;2.28;82.76
69570;BME280;56781;42.292;23.146;2024-03-08T06:24:16;95095.72;;;0.70;83.37
69570;BME280;56781;42.292;23.146;2024-03-08T06:26:47;95543.16;;;3.84;83.39
69570;BME280;56781;42.292;23.146;2024-03-08T06:29:16;95053.34;;;0.66;81.80
69570;BME280;56781;42.292;23.146;2024-03-08T06:31:45;95451.97;;;3.61;81.54
69570;BME280;56781;42.292;23.146;2024-03-08T06:34:14;95010.34;;;0.51;81.58
69570;BME280;56781;42.292;23.146;2024-03-08T06:36:42;95493.56;;;3.76;81.86
69570;BME280;56781;42.292;23.146;2024-03-08T06:39:11;95235.09;;;1.98;82.00
69570;BME280;56781;42.292;23.146;2024-03-08T06:41:40;95520.25;;;4.00;81.64
69570;BME280;56781;42.292;23.146;2024-03-08T06:44:10;95138.69;;;1.72;80.59
69570;BME280;56781;42.292;23.146;2024-03-08T06:46:38;94975.84;;;0.56;79.80
69570;BME280;56781;42.292;23.146;2024-03-08T06:49:07;95460.31;;;3.75;78.85
69570;BME280;56781;42.292;23.146;2024-03-08T06:51:37;95482.06;;;3.60;77.85
69570;BME280;56781;42.292;23.146;2024-03-08T06:54:08;95562.88;;;4.27;80.07
69570;BME280;56781;42.292;23.146;2024-03-08T06:56:37;95051.94;;;0.73;80.33
69570;BME280;56781;42.292;23.146;2024-03-08T06:59:06;95566.81;;;4.33;81.92
69570;BME280;56781;42.292;23.146;2024-03-08T07:01:41;94978.41;;;0.49;80.90
69570;BME280;56781;42.292;23.146;2024-03-08T07:04:10;95182.22;;;1.54;79.02
69570;BME280;56781;42.292;23.146;2024-03-08T07:06:39;95237.25;;;1.89;79.20
69570;BME280;56781;42.292;23.146;2024-03-08T07:09:08;95439.97;;;3.20;78.74
69570;BME280;56781;42.292;23.146;2024-03-08T07:11:36;95182.66;;;1.76;79.18
69570;BME280;56781;42.292;23.146;2024-03-08T07:14:08;95575.78;;;4.60;78.97
69570;BME280;56781;42.292;23.146;2024-03-08T07:16:37;95493.56;;;4.22;77.76
69570;BME280;56781;42.292;23.146;2024-03-08T07:19:08;95317.06;;;3.10;78.34
69570;BME280;56781;42.292;23.146;2024-03-08T07:21:37;95504.41;;;4.49;77.09
69570;BME280;56781;42.292;23.146;2024-03-08T07:24:06;95576.47;;;5.06;76.79
69570;BME280;56781;42.292;23.146;2024-03-08T07:26:51;95586.28;;;5.45;78.54
69570;BME280;56781;42.292;23.146;2024-03-08T07:29:20;95404.09;;;4.41;75.64
69570;BME280;56781;42.292;23.146;2024-03-08T07:31:49;95571.19;;;5.47;76.92
69570;BME280;56781;42.292;23.146;2024-03-08T07:34:29;95489.00;;;4.83;77.68
69570;BME280;56781;42.292;23.146;2024-03-08T07:36:59;95030.84;;;2.18;75.55
69570;BME280;56781;42.292;23.146;2024-03-08T07:39:27;95366.31;;;4.52;76.42
69570;BME280;56781;42.292;23.146;2024-03-08T07:41:56;95045.00;;;2.61;75.67
69570;BME280;56781;42.292;23.146;2024-03-08T07:44:25;95276.06;;;4.11;74.56
69570;BME280;56781;42.292;23.146;2024-03-08T07:46:54;95592.84;;;6.08;75.31
69570;BME280;56781;42.292;23.146;2024-03-08T07:49:24;95328.59;;;4.36;74.91
69570;BME280;56781;42.292;23.146;2024-03-08T07:51:54;95246.69;;;3.83;75.23
69570;BME280;56781;42.292;23.146;2024-03-08T07:54:22;95009.47;;;2.32;74.34
69570;BME280;56781;42.292;23.146;2024-03-08T07:56:53;94910.75;;;1.78;72.38
69570;BME280;56781;42.292;23.146;2024-03-08T07:59:21;95111.44;;;3.22;74.47
69570;BME280;56781;42.292;23.146;2024-03-08T08:01:50;95096.22;;;3.07;75.02
69570;BME280;56781;42.292;23.146;2024-03-08T08:04:19;95576.84;;;6.36;73.04
69570;BME280;56781;42.292;23.146;2024-03-08T08:06:52;95349.59;;;4.77;72.82
69570;BME280;56781;42.292;23.146;2024-03-08T08:09:23;95568.94;;;6.65;71.72
69570;BME280;56781;42.292;23.146;2024-03-08T08:12:01;95325.94;;;5.11;71.64
69570;BME280;56781;42.292;23.146;2024-03-08T08:14:31;95102.34;;;3.64;70.70
69570;BME280;56781;42.292;23.146;2024-03-08T08:16:59;95004.19;;;2.96;71.18
69570;BME280;56781;42.292;23.146;2024-03-08T08:19:31;95571.81;;;6.86;70.17
69570;BME280;56781;42.292;23.146;2024-03-08T08:22:00;95405.28;;;6.31;68.47
69570;BME280;56781;42.292;23.146;2024-03-08T08:24:31;95088.88;;;4.05;68.99
69570;BME280;56781;42.292;23.146;2024-03-08T08:27:01;95556.63;;;7.51;66.61
69570;BME280;56781;42.292;23.146;2024-03-08T08:29:30;95094.78;;;4.62;64.76
69570;BME280;56781;42.292;23.146;2024-03-08T08:32:00;95263.97;;;5.58;65.04
69570;BME280;56781;42.292;23.146;2024-03-08T08:34:29;95202.09;;;5.85;64.60
69570;BME280;56781;42.292;23.146;2024-03-08T08:36:58;95085.94;;;5.31;63.96
69570;BME280;56781;42.292;23.146;2024-03-08T08:39:26;95560.75;;;8.33;64.90
69570;BME280;56781;42.292;23.146;2024-03-08T08:41:57;95561.50;;;8.01;65.72
69570;BME280;56781;42.292;23.146;2024-03-08T08:44:25;95038.13;;;3.98;67.59
69570;BME280;56781;42.292;23.146;2024-03-08T08:46:54;95495.25;;;6.77;67.76
69570;BME280;56781;42.292;23.146;2024-03-08T08:49:35;95568.75;;;7.58;67.67
69570;BME280;56781;42.292;23.146;2024-03-08T08:52:05;95241.31;;;5.32;67.37
69570;BME280;56781;42.292;23.146;2024-03-08T08:54:42;95585.47;;;7.63;67.29
69570;BME280;56781;42.292;23.146;2024-03-08T08:57:19;95467.75;;;6.90;66.72
69570;BME280;56781;42.292;23.146;2024-03-08T08:59:47;95477.19;;;7.17;67.39
69570;BME280;56781;42.292;23.146;2024-03-08T09:02:17;95246.72;;;5.91;64.94
69570;BME280;56781;42.292;23.146;2024-03-08T09:04:48;95553.81;;;8.39;65.11
69570;BME280;56781;42.292;23.146;2024-03-08T09:07:17;95139.25;;;5.79;63.87
69570;BME280;56781;42.292;23.146;2024-03-08T09:09:46;95577.97;;;8.69;64.31
69570;BME280;56781;42.292;23.146;2024-03-08T09:12:15;95093.81;;;5.54;60.13
69570;BME280;56781;42.292;23.146;2024-03-08T09:14:44;95551.47;;;8.77;62.23
69570;BME280;56781;42.292;23.146;2024-03-08T09:17:13;95549.13;;;8.97;63.46
69570;BME280;56781;42.292;23.146;2024-03-08T09:19:44;95378.16;;;7.40;62.53
69570;BME280;56781;42.292;23.146;2024-03-08T09:22:13;95564.63;;;8.10;63.05
69570;BME280;56781;42.292;23.146;2024-03-08T09:24:42;94998.03;;;4.59;62.31
69570;BME280;56781;42.292;23.146;2024-03-08T09:27:11;95055.34;;;5.34;61.42
69570;BME280;56781;42.292;23.146;2024-03-08T09:29:40;95547.56;;;8.42;63.18
69570;BME280;56781;42.292;23.146;2024-03-08T09:32:12;95142.38;;;5.81;61.92
69570;BME280;56781;42.292;23.146;2024-03-08T09:34:41;95499.59;;;7.94;61.19
69570;BME280;56781;42.292;23.146;2024-03-08T09:37:09;95060.84;;;5.56;61.24
69570;BME280;56781;42.292;23.146;2024-03-08T09:39:38;95559.59;;;9.20;61.07
69570;BME280;56781;42.292;23.146;2024-03-08T09:42:07;95442.72;;;8.90;59.43
69570;BME280;56781;42.292;23.146;2024-03-08T10:05:34;94939.47;;;7.00;52.62
69570;BME280;56781;42.292;23.146;2024-03-08T10:08:03;95273.78;;;9.27;53.98
69570;BME280;56781;42.292;23.146;2024-03-08T10:10:33;95169.69;;;8.73;51.61
69570;BME280;56781;42.292;23.146;2024-03-08T10:13:05;95159.16;;;7.98;53.12
69570;BME280;56781;42.292;23.146;2024-03-08T10:15:33;95563.06;;;10.89;56.98
69570;BME280;56781;42.292;23.146;2024-03-08T10:18:01;95486.38;;;10.93;55.42
69570;BME280;56781;42.292;23.146;2024-03-08T10:20:30;94951.50;;;7.02;54.34
69570;BME280;56781;42.292;23.146;2024-03-08T10:23:02;95284.03;;;9.05;54.54
69570;BME280;56781;42.292;23.146;2024-03-08T10:25:37;95218.38;;;8.75;56.77
69570;BME280;56781;42.292;23.146;2024-03-08T10:28:06;95333.41;;;9.88;53.32
69570;BME280;56781;42.292;23.146;2024-03-08T10:30:35;95268.88;;;9.04;56.46
69570;BME280;56781;42.292;23.146;2024-03-08T10:33:03;95184.31;;;8.31;56.10
69570;BME280;56781;42.292;23.146;2024-03-08T10:35:32;95184.00;;;8.14;53.41
69570;BME280;56781;42.292;23.146;2024-03-08T10:38:05;95474.88;;;9.56;54.07
69570;BME280;56781;42.292;23.146;2024-03-08T10:40:38;95184.25;;;8.49;53.38
69570;BME280;56781;42.292;23.146;2024-03-08T10:43:16;95534.56;;;10.83;51.09
69570;BME280;56781;42.292;23.146;2024-03-08T10:45:47;95203.34;;;9.08;52.83
69570;BME280;56781;42.292;23.146;2024-03-08T10:48:28;95304.50;;;9.91;51.32
69570;BME280;56781;42.292;23.146;2024-03-08T10:51:04;95179.91;;;9.18;50.57
69570;BME280;56781;42.292;23.146;2024-03-08T10:53:36;95228.00;;;9.46;51.99
69570;BME280;56781;42.292;23.146;2024-03-08T10:56:08;94977.25;;;7.64;52.53
69570;BME280;56781;42.292;23.146;2024-03-08T10:58:38;94979.59;;;7.62;51.46
69570;BME280;56781;42.292;23.146;2024-03-08T11:01:07;95300.81;;;9.63;50.00
69570;BME280;56781;42.292;23.146;2024-03-08T11:03:47;95227.47;;;9.62;51.10
69570;BME280;56781;42.292;23.146;2024-03-08T11:06:23;95207.69;;;9.02;51.51
69570;BME280;56781;42.292;23.146;2024-03-08T11:08:54;95281.50;;;9.36;51.21
69570;BME280;56781;42.292;23.146;2024-03-08T11:11:27;94968.72;;;6.49;53.33
69570;BME280;56781;42.292;23.146;2024-03-08T11:14:01;95500.22;;;10.23;56.68
69570;BME280;56781;42.292;23.146;2024-03-08T11:16:39;95158.84;;;7.74;56.68
69570;BME280;56781;42.292;23.146;2024-03-08T11:19:26;95218.19;;;8.26;53.08
69570;BME280;56781;42.292;23.146;2024-03-08T11:22:03;95278.09;;;8.48;54.55
69570;BME280;56781;42.292;23.146;2024-03-08T11:24:39;95051.34;;;7.02;53.64
69570;BME280;56781;42.292;23.146;2024-03-08T11:27:09;95017.94;;;6.98;55.67
69570;BME280;56781;42.292;23.146;2024-03-08T11:29:39;95057.84;;;7.37;54.10
69570;BME280;56781;42.292;23.146;2024-03-08T11:32:11;95183.88;;;8.43;52.36
69570;BME280;56781;42.292;23.146;2024-03-08T11:34:41;95308.44;;;9.34;53.50
69570;BME280;56781;42.292;23.146;2024-03-08T11:37:12;95204.44;;;8.58;51.78
69570;BME280;56781;42.292;23.146;2024-03-08T11:39:48;95265.25;;;9.15;50.23
69570;BME280;56781;42.292;23.146;2024-03-08T11:42:18;95179.94;;;8.51;48.65
69570;BME280;56781;42.292;23.146;2024-03-08T11:44:50;95203.09;;;8.88;52.12
69570;BME280;56781;42.292;23.146;2024-03-08T11:47:19;95400.31;;;10.18;51.55
69570;BME280;56781;42.292;23.146;2024-03-08T11:49:47;95264.22;;;9.01;50.48
69570;BME280;56781;42.292;23.146;2024-03-08T11:52:17;94999.19;;;7.28;49.21
69570;BME280;56781;42.292;23.146;2024-03-08T11:54:54;95184.94;;;8.60;50.71
69570;BME280;56781;42.292;23.146;2024-03-08T11:57:25;94942.56;;;6.95;49.92
69570;BME280;56781;42.292;23.146;2024-03-08T11:59:56;95090.78;;;7.74;51.40
69570;BME280;56781;42.292;23.146;2024-03-08T12:02:25;95215.56;;;8.89;51.11
69570;BME280;56781;42.292;23.146;2024-03-08T12:04:58;95298.59;;;9.47;50.55
69570;BME280;56781;42.292;23.146;2024-03-08T12:07:30;95469.34;;;10.74;50.38
69570;BME280;56781;42.292;23.146;2024-03-08T12:10:17;94933.31;;;6.85;49.87
69570;BME280;56781;42.292;23.146;2024-03-08T12:12:46;94890.69;;;6.53;50.65
69570;BME280;56781;42.292;23.146;2024-03-08T12:15:15;95422.28;;;10.00;51.46
69570;BME280;56781;42.292;23.146;2024-03-08T12:17:45;95469.44;;;10.67;51.25
69570;BME280;56781;42.292;23.146;2024-03-08T12:20:16;95313.94;;;9.79;49.38
69570;BME280;56781;42.292;23.146;2024-03-08T12:22:45;95243.44;;;9.15;49.03
69570;BME280;56781;42.292;23.146;2024-03-08T12:25:13;94997.34;;;7.88;48.96
69570;BME280;56781;42.292;23.146;2024-03-08T12:27:44;95051.53;;;8.35;46.64
69570;BME280;56781;42.292;23.146;2024-03-08T12:30:21;95049.94;;;8.41;47.52
69570;BME280;56781;42.292;23.146;2024-03-08T12:32:54;95195.19;;;9.01;46.81
69570;BME280;56781;42.292;23.146;2024-03-08T12:35:26;95427.47;;;10.39;46.32
69570;BME280;56781;42.292;23.146;2024-03-08T12:37:56;95201.53;;;8.87;47.41
69570;BME280;56781;42.292;23.146;2024-03-08T12:40:29;95438.94;;;10.69;46.14
69570;BME280;56781;42.292;23.146;2024-03-08T12:43:01;95171.88;;;8.93;50.91
69570;BME280;56781;42.292;23.146;2024-03-08T12:45:29;94883.38;;;7.31;49.54
69570;BME280;56781;42.292;23.146;2024-03-08T12:47:59;94982.53;;;7.93;46.05
69570;BME280;56781;42.292;23.146;2024-03-08T12:50:27;95021.34;;;8.08;47.63
69570;BME280;56781;42.292;23.146;2024-03-08T12:52:57;95171.09;;;8.92;47.94
69570;BME280;56781;42.292;23.146;2024-03-08T12:55:25;95430.94;;;10.89;46.82
69570;BME280;56781;42.292;23.146;2024-03-08T12:57:54;95063.56;;;8.41;46.99
69570;BME280;56781;42.292;23.146;2024-03-08T13:00:24;95432.38;;;10.59;46.79
69570;BME280;56781;42.292;23.146;2024-03-08T13:02:53;95459.78;;;10.52;48.28
69570;BME280;56781;42.292;23.146;2024-03-08T13:05:22;95371.78;;;10.19;48.13
69570;BME280;56781;42.292;23.146;2024-03-08T13:07:50;95290.59;;;9.71;48.43
69570;BME280;56781;42.292;23.146;2024-03-08T13:10:20;94896.22;;;7.27;46.20
69570;BME280;56781;42.292;23.146;2024-03-08T13:12:49;95247.16;;;9.42;47.87
69570;BME280;56781;42.292;23.146;2024-03-08T13:15:20;95106.09;;;8.83;46.18
69570;BME280;56781;42.292;23.146;2024-03-08T13:17:50;95077.69;;;8.81;47.39
69570;BME280;56781;42.292;23.146;2024-03-08T13:20:18;95244.34;;;9.94;46.18
69570;BME280;56781;42.292;23.146;2024-03-08T13:22:56;94941.75;;;7.86;45.89
69570;BME280;56781;42.292;23.146;2024-03-08T13:25:28;94946.13;;;7.65;44.40
69570;BME280;56781;42.292;23.146;2024-03-08T13:27:57;94891.06;;;7.47;46.61
69570;BME280;56781;42.292;23.146;2024-03-08T13:30:27;95430.19;;;11.19;49.11
69570;BME280;56781;42.292;23.146;2024-03-08T13:32:59;95067.97;;;8.80;44.27
69570;BME280;56781;42.292;23.146;2024-03-08T13:35:27;95146.06;;;9.49;47.50